Time;durP1;ratioP1;P1;durP2;ratioP2;P2;SDS_P1;SDS_P2;PMS_P1;PMS_P2;Temp;Humidity;BMP_temperature;BMP_pressure;BME280_temperature;BME280_humidity;BME280_pressure;Samples;Min_cycle;Max_cycle;Signal;HPM_P1;HPM_P2
2022/03/20 00:01:55;;;;;;;5.82;3.12;;;;;;;4.07;30.62;101889.03;4218479;33;32421;-93
2022/03/20 00:04:45;;;;;;;6.60;3.47;;;;;;;4.20;30.46;101893.94;4254864;33;33426;-95
2022/03/20 00:08:14;;;;;;;2.92;2.40;;;;;;;4.28;30.32;101890.09;4249700;33;35168;-93
2022/03/20 00:11:04;;;;;;;4.97;3.25;;;;;;;3.94;30.16;101889.25;4263321;33;34249;-92
2022/03/20 00:14:54;;;;;;;3.78;2.35;;;;;;;3.94;30.16;101885.00;4245748;33;33457;-93
2022/03/20 00:18:10;;;;;;;6.85;3.62;;;;;;;3.78;30.31;101892.75;4258577;33;32603;-93
2022/03/20 00:21:19;;;;;;;5.57;3.08;;;;;;;3.76;30.48;101892.66;4260504;33;32897;-92
2022/03/20 00:24:48;;;;;;;5.25;3.12;;;;;;;4.21;30.04;101893.16;4258147;33;34475;-94
2022/03/20 00:27:41;;;;;;;6.12;2.80;;;;;;;3.84;30.41;101888.81;4256025;33;32965;-95
2022/03/20 03:07:04;;;;;;;5.05;3.40;;;;;;;2.08;37.95;101944.38;4111925;34;35134;-96
2022/03/20 04:31:22;;;;;;;7.53;3.92;;;;;;;2.20;40.01;102049.19;5129137;28;33350;-95
2022/03/20 04:44:55;;;;;;;6.32;3.42;;;;;;;1.73;41.60;102064.28;5199760;27;34438;-96
2022/03/20 05:01:34;;;;;;;4.68;3.53;;;;;;;1.35;42.73;102091.81;5272746;27;34589;-95
2022/03/20 05:04:49;;;;;;;7.37;4.30;;;;;;;1.28;42.69;102102.44;5252371;27;33614;-95
2022/03/20 05:07:50;;;;;;;5.87;3.87;;;;;;;0.95;43.49;102099.53;5253389;27;33894;-95
2022/03/20 05:14:49;;;;;;;5.50;3.87;;;;;;;1.22;43.47;102092.72;5260080;27;33900;-94
2022/03/20 05:17:19;;;;;;;5.12;3.87;;;;;;;1.75;41.96;102090.84;5272376;27;33885;-94
2022/03/20 05:21:10;;;;;;;10.05;3.90;;;;;;;1.49;41.74;102095.22;5278572;27;33928;-93
2022/03/20 05:24:19;;;;;;;6.72;4.12;;;;;;;1.97;41.85;102103.28;5284535;27;33487;-94
2022/03/20 05:27:28;;;;;;;6.50;4.28;;;;;;;1.59;43.14;102115.47;5282347;27;32369;-94
2022/03/20 05:30:42;;;;;;;6.03;3.78;;;;;;;1.56;42.44;102122.09;5281234;27;34328;-93
2022/03/20 05:33:53;;;;;;;5.28;3.80;;;;;;;1.49;43.18;102131.03;5294729;27;33705;-94
2022/03/20 05:37:43;;;;;;;8.50;4.18;;;;;;;1.89;42.13;102120.72;5281921;27;32073;-92
2022/03/20 05:40:33;;;;;;;6.07;3.97;;;;;;;2.22;42.31;102121.84;5276718;27;32544;-92
2022/03/20 05:43:22;;;;;;;6.05;3.72;;;;;;;2.08;41.99;102133.84;5284800;27;32986;-94
2022/03/20 05:45:53;;;;;;;7.35;4.28;;;;;;;2.48;42.21;102143.91;5302779;27;33806;-94
2022/03/20 05:48:42;;;;;;;7.05;3.90;;;;;;;2.84;41.44;102138.28;5281305;27;32427;-94
2022/03/20 05:52:13;;;;;;;5.82;3.90;;;;;;;2.72;42.00;102141.87;5298454;27;34495;-94
2022/03/20 05:58:01;;;;;;;8.05;3.72;;;;;;;2.34;41.42;102142.19;5281165;27;34223;-95
2022/03/20 05:59:12;;;;;;;5.65;3.40;;;;;;;2.54;42.00;102138.28;5296385;27;33154;-94
2022/03/20 06:02:21;;;;;;;6.25;4.05;;;;;;;2.90;40.80;102144.66;5298964;27;33336;-94
2022/03/20 06:05:31;;;;;;;6.35;3.67;;;;;;;2.75;41.06;102139.53;5273255;27;32488;-92
2022/03/20 06:08:40;;;;;;;6.37;4.30;;;;;;;2.45;41.14;102147.97;5278401;27;33567;-94
2022/03/20 06:12:56;;;;;;;7.62;3.25;;;;;;;2.28;41.62;102152.09;5276081;27;33011;-94
2022/03/20 06:16:01;;;;;;;6.93;3.83;;;;;;;1.81;42.13;102171.47;5289069;27;33256;-95
2022/03/20 06:19:10;;;;;;;6.70;3.67;;;;;;;2.09;41.72;102178.25;5266450;27;33673;-95
2022/03/20 06:22:00;;;;;;;7.57;4.85;;;;;;;2.61;40.94;102178.84;5278899;27;33273;-95
2022/03/20 06:24:53;;;;;;;6.25;3.95;;;;;;;3.08;40.84;102170.44;5275592;27;33520;-94
2022/03/20 06:28:40;;;;;;;4.03;2.92;;;;;;;3.04;40.08;102186.44;5276140;27;33796;-95
2022/03/20 06:36:15;;;;;;;6.32;3.72;;;;;;;3.81;37.74;102189.03;5299049;27;36131;-95
2022/03/20 06:40:57;;;;;;;3.85;3.08;;;;;;;3.82;36.99;102187.38;5277886;27;34095;-96
2022/03/20 06:44:53;;;;;;;3.72;3.03;;;;;;;4.35;36.65;102189.34;5276189;27;32277;-96
2022/03/20 06:54:17;;;;;;;5.03;3.22;;;;;;;5.01;36.04;102199.53;5297076;27;34083;-95
2022/03/20 06:58:43;;;;;;;4.85;3.25;;;;;;;4.77;35.92;102210.34;5209434;27;34128;-95
2022/03/20 09:27:00;;;;;;;4.12;2.67;;;;;;;9.53;26.72;102224.00;5356987;26;20107;-96
2022/03/20 09:30:10;;;;;;;4.70;2.58;;;;;;;9.48;26.16;102208.31;5367523;26;34685;-95
2022/03/20 09:34:21;;;;;;;11.50;4.20;;;;;;;9.08;26.45;102203.53;5342005;26;32684;-96
2022/03/20 09:38:10;;;;;;;2.83;2.42;;;;;;;9.26;25.84;102209.34;5341501;26;32609;-96
2022/03/20 09:42:06;;;;;;;4.12;2.55;;;;;;;9.03;26.40;102205.09;5342742;26;33092;-96
2022/03/20 09:46:13;;;;;;;4.55;2.72;;;;;;;9.37;25.99;102200.22;5341318;26;34519;-96
2022/03/20 09:49:26;;;;;;;3.70;2.45;;;;;;;9.48;26.38;102204.84;5342014;26;33073;-95
2022/03/20 09:52:36;;;;;;;3.80;2.45;;;;;;;8.32;26.87;102203.50;5340645;26;32192;-95
2022/03/20 09:55:25;;;;;;;3.58;2.45;;;;;;;8.43;26.87;102205.63;5360314;26;33599;-96
2022/03/20 09:58:01;;;;;;;;;;;;;;;8.87;26.24;102207.19;5360968;26;33470;-95
2022/03/20 10:00:50;;;;;;;3.70;2.03;;;;;;;9.24;25.95;102200.63;5340655;26;32451;-96
2022/03/20 10:03:41;;;;;;;3.50;2.50;;;;;;;9.38;25.85;102195.91;5366284;26;32739;-96
2022/03/20 10:06:50;;;;;;;3.87;2.00;;;;;;;9.18;26.27;102203.00;5366236;26;34231;-96
2022/03/20 10:10:39;;;;;;;6.50;2.70;;;;;;;9.56;25.38;102198.19;5360931;26;34075;-96
2022/03/20 10:14:06;;;;;;;3.42;2.50;;;;;;;9.24;25.82;102186.81;5354838;26;33250;-96
2022/03/20 10:17:17;;;;;;;4.45;2.45;;;;;;;8.31;26.44;102187.91;5358732;26;31840;-95
2022/03/20 10:20:17;;;;;;;5.18;2.92;;;;;;;9.42;26.53;102189.09;5358959;26;34286;-96
2022/03/20 10:23:50;;;;;;;4.17;2.80;;;;;;;9.39;25.90;102182.09;5359573;26;34860;-96
2022/03/20 10:26:41;;;;;;;2.47;1.95;;;;;;;9.16;26.36;102186.56;5358139;26;33021;-96
2022/03/20 10:30:31;;;;;;;6.70;2.92;;;;;;;9.74;26.12;102184.94;5358719;26;32923;-96
2022/03/20 10:33:22;;;;;;;4.12;2.78;;;;;;;10.20;25.13;102181.97;5359682;26;33995;-95
2022/03/20 10:36:11;;;;;;;5.57;3.65;;;;;;;10.46;25.17;102181.81;5358162;26;33605;-96
2022/03/20 10:39:42;;;;;;;3.37;2.33;;;;;;;10.01;25.27;102167.59;5359281;26;33918;-96
2022/03/20 10:42:14;;;;;;;3.00;2.03;;;;;;;10.39;25.31;102177.28;5358422;26;33462;-96
2022/03/20 10:44:44;;;;;;;;;;;;;;;9.80;24.81;102162.63;5356156;26;34257;-95
2022/03/20 10:47:37;;;;;;;4.25;2.42;;;;;;;10.36;24.83;102178.09;5356884;26;33291;-96
2022/03/20 10:50:27;;;;;;;3.62;2.37;;;;;;;10.58;25.00;102166.59;5356476;26;32837;-96
2022/03/20 10:53:17;;;;;;;2.80;2.45;;;;;;;10.69;24.89;102166.88;5356080;26;32746;-96
2022/03/20 10:56:26;;;;;;;4.60;2.72;;;;;;;10.32;24.53;102165.91;5356759;26;32556;-95
2022/03/20 10:59:36;;;;;;;4.18;2.85;;;;;;;10.15;24.68;102164.53;5356376;26;33576;-96
2022/03/20 11:02:27;;;;;;;5.50;3.28;;;;;;;10.08;24.97;102158.28;5356333;26;33412;-96
2022/03/20 11:05:20;;;;;;;4.43;2.95;;;;;;;10.28;24.33;102152.75;5362345;26;33856;-95
2022/03/20 11:07:56;;;;;;;5.10;3.10;;;;;;;9.91;24.48;102143.94;5361931;26;33597;-96
2022/03/20 11:10:52;;;;;;;6.10;3.67;;;;;;;10.04;24.82;102143.44;5345090;26;34285;-95
2022/03/20 11:14:25;;;;;;;6.70;3.22;;;;;;;10.26;23.76;102135.41;5362478;26;32937;-96
2022/03/20 11:17:43;;;;;;;4.22;2.70;;;;;;;10.61;24.45;102127.75;5356689;26;35047;-95
2022/03/20 11:20:15;;;;;;;7.22;3.37;;;;;;;10.63;24.10;102138.16;5362109;26;34244;-95
2022/03/20 11:23:07;;;;;;;3.03;2.28;;;;;;;9.73;25.29;102134.78;5362112;26;35290;-95
2022/03/20 11:26:16;;;;;;;5.57;3.92;;;;;;;8.63;26.00;102136.47;5356447;26;33189;-96
2022/03/20 11:29:57;;;;;;;4.10;2.80;;;;;;;8.33;26.45;102131.94;5364836;26;33715;-96
2022/03/20 11:33:04;;;;;;;4.75;2.80;;;;;;;8.56;26.21;102125.03;5361273;26;34644;-96
2022/03/20 11:35:37;;;;;;;4.68;3.12;;;;;;;9.09;25.64;102112.97;5366586;26;33848;-95
2022/03/20 11:38:36;;;;;;;4.12;2.50;;;;;;;9.30;25.52;102110.19;5363562;26;32686;-95
2022/03/20 11:41:25;;;;;;;4.00;2.80;;;;;;;9.53;24.70;102092.72;5342997;26;33120;-96
2022/03/20 11:44:16;;;;;;;4.55;2.55;;;;;;;9.14;25.63;102097.59;5357311;26;33150;-96
2022/03/20 11:47:27;;;;;;;5.25;2.85;;;;;;;10.04;23.78;102096.78;5359801;26;34855;-96
2022/03/20 11:51:02;;;;;;;3.50;2.80;;;;;;;9.68;23.70;102094.00;5359721;26;35131;-95
2022/03/20 11:54:04;;;;;;;4.25;3.05;;;;;;;9.72;24.39;102083.78;5366064;26;34231;-96
2022/03/20 11:56:54;;;;;;;3.00;1.90;;;;;;;9.86;24.41;102088.47;5364817;26;34277;-96
2022/03/20 12:00:12;;;;;;;4.28;2.72;;;;;;;10.38;23.01;102077.81;5366081;26;33496;-96
2022/03/20 12:03:48;;;;;;;4.30;2.95;;;;;;;10.47;23.06;102082.38;5359079;26;32864;-96
2022/03/20 12:07:22;;;;;;;6.20;2.20;;;;;;;10.60;22.05;102066.25;5359812;26;32206;-95
2022/03/20 12:10:37;;;;;;;4.45;2.75;;;;;;;10.16;23.50;102071.16;5357130;26;34445;-96
2022/03/20 12:13:49;;;;;;;5.57;2.33;;;;;;;10.79;22.53;102070.19;5359346;26;34495;-96
2022/03/20 12:17:17;;;;;;;3.30;2.28;;;;;;;11.40;22.00;102062.91;5358840;26;34223;-95
2022/03/20 12:20:07;;;;;;;4.93;2.75;;;;;;;10.68;22.89;102064.75;5360088;26;32466;-96
2022/03/20 12:23:54;;;;;;;4.55;2.47;;;;;;;9.26;23.82;102050.47;5360088;26;34821;-96
2022/03/20 12:27:23;;;;;;;2.42;1.92;;;;;;;10.51;22.53;102066.06;5344877;26;32680;-96
2022/03/20 12:30:56;;;;;;;2.53;1.90;;;;;;;10.84;22.06;102059.91;5362907;26;35154;-95
2022/03/20 12:33:28;;;;;;;3.20;2.25;;;;;;;10.29;22.01;102053.34;5361139;26;34517;-96
2022/03/20 12:36:34;;;;;;;;;;;;;;;10.44;22.34;102057.22;5360261;26;34526;-96
2022/03/20 12:39:11;;;;;;;3.67;2.62;;;;;;;10.99;22.82;102051.59;5360309;26;34843;-96
2022/03/20 12:41:43;;;;;;;5.43;2.65;;;;;;;10.73;22.25;102046.69;5360711;26;35137;-94
2022/03/20 12:44:32;;;;;;;4.25;2.30;;;;;;;11.21;21.61;102034.78;5357904;26;33552;-95
2022/03/20 12:47:27;;;;;;;2.62;2.15;;;;;;;11.52;21.68;102038.91;5359894;26;33271;-95
2022/03/20 12:50:00;;;;;;;4.37;2.35;;;;;;;11.72;21.01;102034.13;5340150;26;35712;-96
2022/03/20 12:52:33;;;;;;;4.80;2.75;;;;;;;11.58;21.07;102032.97;5346349;26;33378;-95
2022/03/20 12:55:09;;;;;;;4.43;2.65;;;;;;;11.47;20.56;102033.59;5358533;26;33957;-96
2022/03/20 12:57:40;;;;;;;3.65;2.28;;;;;;;11.54;20.92;102029.41;5358476;26;34421;-96
2022/03/20 13:00:14;;;;;;;4.37;2.37;;;;;;;11.37;20.91;102039.47;5357965;26;33538;-96
2022/03/20 13:03:00;;;;;;;4.15;2.70;;;;;;;11.63;21.15;102036.53;5358378;26;34477;-94
2022/03/20 13:05:31;;;;;;;3.90;2.50;;;;;;;11.44;20.91;102027.47;5339994;26;33865;-96
2022/03/20 13:08:07;;;;;;;5.62;2.60;;;;;;;11.78;20.64;102029.03;5340494;26;32717;-96
2022/03/20 13:10:42;;;;;;;5.87;2.78;;;;;;;11.43;20.83;102025.72;5343739;26;33236;-95
2022/03/20 13:13:34;;;;;;;3.95;2.42;;;;;;;11.53;20.92;102010.34;5357094;26;33573;-96
2022/03/20 13:16:16;;;;;;;3.37;2.00;;;;;;;11.09;21.14;102009.44;5355619;26;33982;-95
2022/03/20 13:18:49;;;;;;;4.75;2.55;;;;;;;11.14;21.03;102009.50;5356900;26;34369;-95
2022/03/20 13:21:20;;;;;;;4.25;2.85;;;;;;;11.10;20.80;101999.06;5358335;26;35351;-94
2022/03/20 13:23:53;;;;;;;3.45;2.65;;;;;;;11.48;21.44;102006.78;5358364;26;35269;-96
2022/03/20 13:26:25;;;;;;;3.78;2.28;;;;;;;11.35;21.56;102009.09;5364439;26;32941;-95
2022/03/20 13:29:26;;;;;;;4.20;3.08;;;;;;;10.41;22.00;102006.97;5365068;26;33078;-95
2022/03/20 13:32:02;;;;;;;3.60;2.28;;;;;;;10.59;21.64;102006.53;5362395;26;34604;-95
2022/03/20 13:34:36;;;;;;;4.20;2.30;;;;;;;11.43;20.95;101995.41;5360729;26;34735;-94
2022/03/20 13:37:07;;;;;;;3.67;2.35;;;;;;;11.77;20.97;102002.97;5343307;26;32800;-95
2022/03/20 13:39:37;;;;;;;;;;;;;;;11.25;21.08;101993.31;5358475;26;34287;-95
2022/03/20 13:42:17;;;;;;;4.10;2.45;;;;;;;12.01;20.91;102000.88;5358456;26;34399;-94
2022/03/20 13:44:53;;;;;;;4.22;2.37;;;;;;;12.17;21.20;102000.28;5345747;26;32910;-96
2022/03/20 13:47:23;;;;;;;4.70;2.42;;;;;;;12.52;20.58;101984.38;5359024;26;33886;-96
2022/03/20 13:49:57;;;;;;;2.95;2.28;;;;;;;12.47;20.56;101988.66;5357805;26;35413;-94
2022/03/20 13:52:31;;;;;;;4.18;2.45;;;;;;;11.73;20.78;101997.72;5362107;26;35339;-95
2022/03/20 13:55:26;;;;;;;3.10;2.15;;;;;;;12.06;19.95;101991.44;5359393;26;34346;-96
2022/03/20 13:58:05;;;;;;;3.75;2.05;;;;;;;12.87;19.50;101978.81;5359703;26;33724;-95
2022/03/20 14:01:00;;;;;;;;;;;;;;;13.02;19.22;101981.66;5361606;26;32766;-96
2022/03/20 14:03:40;;;;;;;5.35;3.05;;;;;;;12.94;19.19;101977.19;5365127;26;34368;-96
2022/03/20 14:06:10;;;;;;;5.00;2.92;;;;;;;12.56;19.44;101986.19;5364616;26;33599;-96
2022/03/20 14:08:52;;;;;;;8.02;2.80;;;;;;;12.52;19.68;101986.13;5360906;26;33887;-96
2022/03/20 14:11:33;;;;;;;5.43;2.65;;;;;;;12.65;19.76;101976.75;5342589;26;36189;-95
2022/03/20 14:14:06;;;;;;;5.05;2.30;;;;;;;13.42;19.29;101974.34;5362163;26;33228;-95
2022/03/20 14:16:37;;;;;;;3.92;2.37;;;;;;;13.08;18.94;101974.75;5362601;26;33448;-96
2022/03/20 14:19:11;;;;;;;4.28;2.22;;;;;;;13.28;18.76;101962.00;5361295;26;34419;-96
2022/03/20 14:21:57;;;;;;;4.35;2.37;;;;;;;12.33;19.75;101970.19;5347114;26;34692;-96
2022/03/20 14:24:46;;;;;;;3.22;2.20;;;;;;;12.85;18.90;101971.84;5364833;26;33438;-96
2022/03/20 14:27:30;;;;;;;4.10;2.22;;;;;;;12.68;18.73;101963.78;5360389;26;33770;-94
2022/03/20 14:41:34;;;;;;;2.90;1.90;;;;;;;12.67;19.27;101957.69;5365798;26;33575;-94
2022/03/20 14:44:32;;;;;;;3.20;2.03;;;;;;;12.76;18.97;101954.38;5360812;26;34504;-94
2022/03/20 14:47:05;;;;;;;4.10;2.55;;;;;;;11.71;19.17;101954.34;5360993;26;33107;-92
2022/03/20 14:49:35;;;;;;;3.37;2.08;;;;;;;11.03;19.66;101958.19;5370735;26;33560;-96
2022/03/20 14:52:08;;;;;;;3.72;2.35;;;;;;;12.07;19.31;101956.75;5360276;26;32432;-95
2022/03/20 14:54:41;;;;;;;3.78;2.78;;;;;;;12.45;18.98;101960.84;5344013;26;33012;-94
2022/03/20 14:57:11;;;;;;;4.72;2.22;;;;;;;12.59;18.14;101948.91;5362902;26;34848;-94
2022/03/20 14:59:41;;;;;;;5.30;2.97;;;;;;;12.60;18.79;101942.84;5364353;26;34486;-93
2022/03/20 15:02:12;;;;;;;4.70;2.90;;;;;;;12.47;18.85;101933.12;5363949;26;33208;-94
2022/03/20 15:04:41;;;;;;;;;;;;;;;12.90;18.50;101941.50;5369402;26;33748;-95
2022/03/20 15:07:13;;;;;;;4.07;2.50;;;;;;;12.66;18.75;101929.03;5343609;26;33712;-96
2022/03/20 15:12:50;;;;;;;2.80;2.05;;;;;;;10.87;20.24;101931.03;5365214;26;34051;-93
2022/03/20 15:15:39;;;;;;;3.67;2.58;;;;;;;11.62;19.36;101931.66;5365832;26;33269;-95
2022/03/20 15:18:58;;;;;;;2.95;2.05;;;;;;;11.53;19.48;101916.75;5363260;26;33028;-95
2022/03/20 15:21:40;;;;;;;5.40;3.12;;;;;;;11.48;19.71;101926.19;5364925;26;32901;-95
2022/03/20 15:24:31;;;;;;;4.28;2.97;;;;;;;11.53;20.15;101927.16;5364594;26;32383;-95
2022/03/20 15:27:20;;;;;;;3.72;2.30;;;;;;;12.12;19.35;101923.00;5342168;26;32554;-95
2022/03/20 15:30:11;;;;;;;3.95;2.62;;;;;;;12.25;19.17;101909.34;5338582;26;32549;-96
2022/03/20 15:32:42;;;;;;;4.25;2.37;;;;;;;12.32;19.33;101919.00;5344431;26;32757;-94
2022/03/20 15:35:36;;;;;;;4.30;2.37;;;;;;;12.23;19.31;101918.88;5343545;26;32400;-94
2022/03/20 15:38:08;;;;;;;4.22;2.30;;;;;;;11.80;19.57;101923.31;5341115;26;33047;-95
2022/03/20 15:41:01;;;;;;;5.32;2.95;;;;;;;11.79;19.64;101924.16;5336974;26;33286;-95
2022/03/20 15:43:57;;;;;;;2.53;1.87;;;;;;;11.76;20.06;101916.28;5339559;26;33194;-94
2022/03/20 15:46:26;;;;;;;4.55;2.12;;;;;;;11.21;20.55;101921.34;5338230;26;32739;-95
2022/03/20 15:49:19;;;;;;;3.08;2.10;;;;;;;11.60;19.80;101929.84;5345936;26;33906;-94
2022/03/20 15:52:11;;;;;;;3.87;2.28;;;;;;;11.58;19.81;101916.84;5344044;26;33104;-94
2022/03/20 15:54:41;;;;;;;3.37;2.25;;;;;;;11.39;20.35;101925.16;5344633;26;33807;-94
2022/03/20 15:58:10;;;;;;;2.55;1.90;;;;;;;11.40;20.28;101925.16;5343878;26;34351;-95
2022/03/20 16:00:42;;;;;;;4.28;2.30;;;;;;;11.24;20.37;101912.75;5344276;26;34191;-95
2022/03/20 16:04:12;;;;;;;4.68;2.37;;;;;;;11.21;20.37;101916.16;5342554;26;32407;-95
2022/03/20 16:06:50;;;;;;;3.15;2.05;;;;;;;11.10;20.96;101910.72;5345977;26;33135;-94
2022/03/20 16:09:43;;;;;;;3.15;1.60;;;;;;;11.00;20.98;101916.59;5347859;26;33797;-95
2022/03/20 16:12:31;;;;;;;3.42;2.28;;;;;;;10.86;21.27;101915.41;5348446;26;33261;-95
2022/03/20 16:16:04;;;;;;;4.07;2.00;;;;;;;10.93;21.80;101911.25;5346379;26;32880;-96
2022/03/20 16:18:53;;;;;;;3.55;1.87;;;;;;;10.88;21.91;101906.81;5339208;26;34228;-95
2022/03/20 16:21:48;;;;;;;5.12;2.17;;;;;;;10.77;22.74;101910.91;5341235;26;34839;-95
2022/03/20 16:31:52;;;;;;;4.68;2.55;;;;;;;10.59;23.30;101903.59;5343318;26;35571;-95
2022/03/20 16:36:22;;;;;;;;;;;;;;;10.21;23.70;101910.47;5257611;27;33613;-95
2022/03/20 16:40:35;;;;;;;3.87;1.92;;;;;;;10.01;23.71;101903.06;5251899;27;34546;-95
2022/03/20 16:45:38;;;;;;;2.65;1.73;;;;;;;9.59;24.25;101898.56;5274570;27;34653;-96
2022/03/20 16:50:26;;;;;;;;;;;;;;;;;;;;;
2022/03/20 16:55:25;;;;;;;3.35;2.30;;;;;;;9.26;25.56;101903.72;5162393;27;34266;-96
2022/03/20 16:59:49;;;;;;;5.55;2.20;;;;;;;9.01;25.52;101911.59;5156384;27;34740;-96
2022/03/20 17:04:17;;;;;;;;;;;;;;;;;;;;;
2022/03/20 17:07:46;;;;;;;4.10;2.42;;;;;;;8.64;26.13;101908.81;5238511;27;33758;-96
2022/03/20 17:11:21;;;;;;;3.03;2.20;;;;;;;8.46;26.44;101901.37;5256575;27;33605;-96
2022/03/20 17:15:06;;;;;;;4.65;3.22;;;;;;;8.50;25.62;101904.91;5253013;27;33532;-96
2022/03/20 17:18:35;;;;;;;4.87;2.40;;;;;;;8.34;26.22;101900.97;5252879;27;34099;-96
2022/03/20 17:25:38;;;;;;;5.15;2.85;;;;;;;7.88;26.89;101908.09;5250465;27;33256;-95
2022/03/20 17:29:33;;;;;;;;;;;;;;;7.76;27.18;101904.25;5308530;27;33373;-95
2022/03/20 17:33:34;;;;;;;9.85;4.35;;;;;;;7.63;28.05;101910.66;5301954;27;34714;-95
2022/03/20 17:37:55;;;;;;;8.90;4.87;;;;;;;7.34;28.18;101907.94;5318943;27;33470;-96
2022/03/20 17:55:06;;;;;;;5.97;3.50;;;;;;;6.82;29.98;101904.34;5265828;27;20125;-96
2022/03/20 18:29:23;;;;;;;10.65;6.00;;;;;;;5.67;31.84;101925.47;5321707;27;34913;-95
2022/03/20 18:33:02;;;;;;;7.75;5.72;;;;;;;5.62;31.54;101936.41;5300893;27;35239;-96
2022/03/20 18:37:07;;;;;;;11.75;5.18;;;;;;;5.72;31.80;101935.97;5275255;27;34640;-95
2022/03/20 18:39:47;;;;;;;8.23;4.90;;;;;;;5.87;31.43;101936.62;5257666;27;33036;-96
2022/03/20 18:42:50;;;;;;;8.18;5.68;;;;;;;5.68;31.30;101931.53;5276635;27;33108;-95
2022/03/20 18:47:14;;;;;;;10.25;5.15;;;;;;;5.62;31.41;101928.66;5268197;27;32830;-96
2022/03/20 18:50:54;;;;;;;9.43;4.80;;;;;;;5.52;31.76;101927.41;5255389;27;32406;-94
2022/03/20 18:53:24;;;;;;;10.27;7.70;;;;;;;5.43;32.35;101933.00;5253875;27;34541;-95
2022/03/20 18:56:00;;;;;;;21.10;9.48;;;;;;;5.50;32.58;101934.16;5301193;27;33502;-96
2022/03/20 19:48:39;;;;;;;10.85;5.05;;;;;;;4.57;33.06;101935.97;5341083;26;20108;-95
2022/03/20 19:59:55;;;;;;;8.88;3.42;;;;;;;4.13;32.66;101926.97;5187550;27;34348;-96
2022/03/20 20:04:07;;;;;;;7.62;3.83;;;;;;;3.98;33.06;101921.97;5125980;28;34763;-96
2022/03/20 20:11:24;;;;;;;20.65;10.50;;;;;;;4.07;33.90;101927.56;5069680;28;33456;-95
2022/03/20 20:17:40;;;;;;;19.52;7.07;;;;;;;3.84;34.92;101919.62;5069400;28;33767;-94
2022/03/20 20:21:10;;;;;;;13.93;6.25;;;;;;;3.87;34.49;101929.16;5081431;28;33388;-96
2022/03/20 20:27:31;;;;;;;13.40;6.00;;;;;;;3.82;34.19;101926.38;5063155;28;34526;-95
2022/03/20 20:31:23;;;;;;;9.20;5.50;;;;;;;3.82;34.42;101921.22;5102049;27;32560;-95
2022/03/20 20:35:24;;;;;;;7.00;4.68;;;;;;;3.94;34.00;101909.78;5162768;27;33580;-94
2022/03/20 20:38:18;;;;;;;11.27;5.15;;;;;;;3.74;34.40;101911.37;5164633;27;32879;-96
2022/03/20 20:42:30;;;;;;;;;;;;;;;;;;;;;
2022/03/20 20:45:45;;;;;;;10.55;5.18;;;;;;;3.79;35.14;101915.03;5180704;27;35203;-96
2022/03/20 20:57:27;;;;;;;7.60;5.25;;;;;;;3.73;34.23;101907.06;5199669;27;34477;-94
2022/03/20 21:00:27;;;;;;;7.57;5.30;;;;;;;3.78;33.92;101903.91;5211147;27;32384;-95
2022/03/20 21:56:14;;;;;;;8.25;4.03;;;;;;;2.93;34.74;101875.59;5103165;28;35938;-95
2022/03/20 22:03:03;;;;;;;7.97;4.63;;;;;;;2.95;35.40;101876.56;5108735;28;34805;-95
2022/03/20 22:33:49;;;;;;;6.18;3.42;;;;;;;2.93;34.24;101879.84;5149057;27;34294;-94
2022/03/20 23:08:09;;;;;;;3.33;2.75;;;;;;;2.51;35.38;101875.06;5110973;27;34944;-95
